createdAt,value
2019-01-10T00:00:49.371Z,6.41
2019-01-10T00:03:21.157Z,6.40
2019-01-10T00:05:52.796Z,6.37
2019-01-10T00:08:24.413Z,6.37
2019-01-10T00:10:56.064Z,6.37
2019-01-10T00:13:28.790Z,6.37
2019-01-10T00:16:00.478Z,6.35
2019-01-10T00:18:32.123Z,6.31
2019-01-10T00:21:03.883Z,6.27
2019-01-10T00:23:35.501Z,6.24
2019-01-10T00:26:07.148Z,6.20
2019-01-10T00:28:38.730Z,6.22
2019-01-10T00:31:10.645Z,6.22
2019-01-10T00:33:42.258Z,6.23
2019-01-10T00:36:13.975Z,6.23
2019-01-10T00:38:46.375Z,6.23
2019-01-10T00:41:18.059Z,6.23
2019-01-10T00:43:49.749Z,6.24
2019-01-10T00:46:21.395Z,6.28
2019-01-10T00:48:53.063Z,6.33
2019-01-10T00:51:25.761Z,6.38
2019-01-10T00:53:57.366Z,6.43
2019-01-10T00:56:29.216Z,6.45
2019-01-10T00:59:01.936Z,6.47
2019-01-10T01:01:33.574Z,6.46
2019-01-10T01:04:05.202Z,6.47
2019-01-10T01:06:37.141Z,6.49
2019-01-10T01:09:10.165Z,6.49
2019-01-10T01:11:41.958Z,6.48
2019-01-10T01:14:13.593Z,6.42
2019-01-10T01:16:45.211Z,6.34
2019-01-10T01:19:16.822Z,6.29
2019-01-10T01:21:48.708Z,6.26
2019-01-10T01:24:20.623Z,6.22
2019-01-10T01:26:52.248Z,6.19
2019-01-10T01:29:23.849Z,6.19
2019-01-10T01:31:55.867Z,6.24
2019-01-10T01:34:28.554Z,6.29
2019-01-10T01:37:00.481Z,6.32
2019-01-10T01:39:32.130Z,6.38
2019-01-10T01:42:04.071Z,6.43
2019-01-10T01:44:35.668Z,6.41
2019-01-10T01:47:07.318Z,6.41
2019-01-10T01:49:39.081Z,6.44
2019-01-10T01:52:10.804Z,6.46
2019-01-10T01:54:42.403Z,6.49
2019-01-10T01:57:14.032Z,6.53
2019-01-10T01:59:45.618Z,6.54
2019-01-10T02:02:17.219Z,6.54
2019-01-10T02:04:48.908Z,6.53
2019-01-10T02:07:20.527Z,6.52
2019-01-10T02:09:52.406Z,6.49
2019-01-10T02:12:25.772Z,6.47
2019-01-10T02:14:57.391Z,6.46
2019-01-10T02:17:29.053Z,6.44
2019-01-10T02:20:01.169Z,6.39
2019-01-10T02:22:33.550Z,6.39
2019-01-10T02:25:07.149Z,6.37
2019-01-10T02:27:38.844Z,6.35
2019-01-10T02:30:16.947Z,6.32
2019-01-10T02:32:49.042Z,6.29
2019-01-10T02:35:20.782Z,6.26
2019-01-10T02:37:52.590Z,6.26
2019-01-10T02:40:24.270Z,6.25
2019-01-10T02:42:55.881Z,6.21
2019-01-10T02:45:27.518Z,6.19
2019-01-10T02:47:59.191Z,6.19
2019-01-10T02:50:30.804Z,6.20
2019-01-10T02:53:02.449Z,6.19
2019-01-10T02:55:34.203Z,6.19
2019-01-10T02:58:06.330Z,6.19
2019-01-10T03:00:38.290Z,6.19
2019-01-10T03:03:09.988Z,6.18
2019-01-10T03:05:41.580Z,6.19
2019-01-10T03:08:13.199Z,6.22
2019-01-10T03:10:45.285Z,6.22
2019-01-10T03:13:16.991Z,6.22
2019-01-10T03:15:48.687Z,6.23
2019-01-10T03:18:20.509Z,6.22
2019-01-10T03:20:52.707Z,6.22
2019-01-10T03:23:24.427Z,6.22
2019-01-10T03:25:56.580Z,6.21
2019-01-10T03:28:31.497Z,6.20
2019-01-10T03:31:08.924Z,6.18
2019-01-10T03:33:43.481Z,6.18
2019-01-10T03:36:18.107Z,6.17
2019-01-10T03:38:59.164Z,6.15
2019-01-10T03:41:30.970Z,6.13
2019-01-10T03:44:06.173Z,6.13
2019-01-10T03:46:40.818Z,6.11
2019-01-10T03:49:20.056Z,6.13
2019-01-10T03:51:52.915Z,6.15
2019-01-10T03:54:28.048Z,6.14
2019-01-10T03:57:03.779Z,6.13
2019-01-10T03:59:40.096Z,6.11
2019-01-10T04:02:14.498Z,6.12
2019-01-10T04:04:46.180Z,6.12
2019-01-10T04:07:17.830Z,6.12
2019-01-10T04:09:49.476Z,6.16
2019-01-10T04:12:21.340Z,6.19
2019-01-10T04:14:53.237Z,6.21
2019-01-10T04:17:24.851Z,6.23
2019-01-10T04:19:56.491Z,6.26
2019-01-10T04:22:28.112Z,6.29
2019-01-10T04:24:59.780Z,6.31
2019-01-10T04:27:31.488Z,6.32
2019-01-10T04:30:03.129Z,6.34
2019-01-10T04:32:35.187Z,6.34
2019-01-10T04:35:07.329Z,6.34
2019-01-10T04:37:39.047Z,6.35
2019-01-10T04:40:14.695Z,6.36
2019-01-10T04:42:46.302Z,6.38
2019-01-10T04:45:18.201Z,6.39
2019-01-10T04:47:49.833Z,6.38
2019-01-10T04:50:22.557Z,6.39
2019-01-10T04:52:54.205Z,6.37
2019-01-10T04:55:25.870Z,6.37
2019-01-10T04:57:57.472Z,6.37
2019-01-10T05:00:29.523Z,6.39
2019-01-10T05:03:02.624Z,6.42
2019-01-10T05:05:34.257Z,6.44
2019-01-10T05:08:05.866Z,6.45
2019-01-10T05:10:38.252Z,6.47
2019-01-10T05:13:10.670Z,6.50
2019-01-10T05:15:42.361Z,6.54
2019-01-10T05:18:13.992Z,6.56
2019-01-10T05:20:45.649Z,6.59
2019-01-10T05:23:17.310Z,6.59
2019-01-10T05:25:50.406Z,6.58
2019-01-10T05:28:22.143Z,6.56
2019-01-10T05:30:54.111Z,6.55
2019-01-10T05:33:26.424Z,6.53
2019-01-10T05:35:58.412Z,6.50
2019-01-10T05:38:30.141Z,6.50
2019-01-10T05:41:01.815Z,6.52
2019-01-10T05:43:36.446Z,6.53
2019-01-10T05:46:13.939Z,6.56
2019-01-10T05:48:48.190Z,6.57
2019-01-10T05:51:19.794Z,6.57
2019-01-10T05:53:51.497Z,6.54
2019-01-10T05:56:23.181Z,6.54
2019-01-10T05:58:55.331Z,6.53
2019-01-10T06:01:26.950Z,6.54
2019-01-10T06:03:58.669Z,6.55
2019-01-10T06:06:31.506Z,6.58
2019-01-10T06:09:03.202Z,6.63
2019-01-10T06:11:34.839Z,6.62
2019-01-10T06:14:06.526Z,6.63
2019-01-10T06:16:39.615Z,6.66
2019-01-10T06:19:11.376Z,6.66
2019-01-10T06:21:43.012Z,6.67
2019-01-10T06:24:14.642Z,6.66
2019-01-10T06:26:46.416Z,6.64
2019-01-10T06:29:18.487Z,6.66
2019-01-10T06:31:50.611Z,6.70
2019-01-10T06:34:22.851Z,6.72
2019-01-10T06:36:54.606Z,6.77
2019-01-10T06:39:26.337Z,6.77
2019-01-10T06:42:09.975Z,6.80
2019-01-10T06:44:44.638Z,6.80
2019-01-10T06:47:15.083Z,6.80
2019-01-10T06:49:46.801Z,6.83
2019-01-10T06:52:18.597Z,6.82
2019-01-10T06:54:56.469Z,6.80
2019-01-10T06:57:23.797Z,6.80
2019-01-10T06:59:56.758Z,6.81
2019-01-10T07:02:28.429Z,6.83
2019-01-10T07:05:03.103Z,6.85
2019-01-10T07:07:34.721Z,6.86
2019-01-10T07:10:29.132Z,6.88
2019-01-10T07:13:00.990Z,6.89
2019-01-10T07:15:32.654Z,6.87
2019-01-10T07:18:05.893Z,6.84
2019-01-10T07:20:43.351Z,6.83
2019-01-10T07:23:15.667Z,6.84
2019-01-10T07:25:49.032Z,6.85
2019-01-10T07:28:27.582Z,6.86
2019-01-10T07:31:00.953Z,6.84
2019-01-10T07:33:40.772Z,6.83
2019-01-10T07:36:17.720Z,6.85
2019-01-10T07:38:49.572Z,6.86
2019-01-10T07:41:27.085Z,6.83
2019-01-10T07:44:03.851Z,6.78
2019-01-10T07:46:39.399Z,6.80
2019-01-10T07:49:13.741Z,6.83
2019-01-10T07:51:50.652Z,6.85
2019-01-10T07:54:24.590Z,6.88
2019-01-10T07:56:58.241Z,6.88
2019-01-10T07:59:31.881Z,6.87
2019-01-10T08:02:06.515Z,6.87
2019-01-10T08:04:43.961Z,6.85
2019-01-10T08:07:26.010Z,6.84
2019-01-10T08:09:59.837Z,6.86
2019-01-10T08:12:36.873Z,6.85
2019-01-10T08:15:17.412Z,6.86
2019-01-10T08:17:50.782Z,6.88
2019-01-10T08:20:27.547Z,6.86
2019-01-10T08:23:00.444Z,6.84
2019-01-10T08:25:37.417Z,6.85
2019-01-10T08:28:09.117Z,6.84
2019-01-10T08:30:42.189Z,6.85
2019-01-10T08:33:14.180Z,6.87
2019-01-10T08:35:47.414Z,6.90
2019-01-10T08:38:19.169Z,6.91
2019-01-10T08:40:50.828Z,6.92
2019-01-10T08:43:22.424Z,6.92
2019-01-10T08:45:55.750Z,6.92
2019-01-10T08:48:27.399Z,6.93
2019-01-10T08:50:59.257Z,6.94
2019-01-10T08:53:30.958Z,6.95
2019-01-10T08:56:02.678Z,6.96
2019-01-10T08:58:34.294Z,7.01
2019-01-10T09:01:06.090Z,7.00
2019-01-10T09:03:37.673Z,7.00
2019-01-10T09:06:09.309Z,6.97
2019-01-10T09:08:41.128Z,6.99
2019-01-10T09:11:12.910Z,6.99
2019-01-10T09:13:44.649Z,6.99
2019-01-10T09:16:16.285Z,6.98
2019-01-10T09:18:47.953Z,6.98
2019-01-10T09:21:19.605Z,7.00
2019-01-10T09:23:51.229Z,7.03
2019-01-10T09:26:22.916Z,7.03
2019-01-10T09:28:54.565Z,7.03
2019-01-10T09:31:26.269Z,7.04
2019-01-10T09:33:58.356Z,7.04
2019-01-10T09:36:32.535Z,7.06
2019-01-10T09:39:05.734Z,7.02
2019-01-10T09:41:37.447Z,7.06
2019-01-10T09:44:09.174Z,7.07
2019-01-10T09:46:41.077Z,7.04
2019-01-10T09:49:13.009Z,7.04
2019-01-10T09:51:46.023Z,7.02
2019-01-10T09:54:17.662Z,7.02
2019-01-10T09:56:49.356Z,7.01
2019-01-10T09:59:20.998Z,7.00
2019-01-10T10:01:52.629Z,6.96
2019-01-10T10:04:24.551Z,6.94
2019-01-10T10:06:56.260Z,6.93
2019-01-10T10:09:28.066Z,6.90
2019-01-10T10:11:59.934Z,6.87
2019-01-10T10:14:31.791Z,6.88
2019-01-10T10:17:03.578Z,6.89
2019-01-10T10:19:35.355Z,6.89
2019-01-10T10:22:07.615Z,6.90
2019-01-10T10:24:39.248Z,6.90
2019-01-10T10:27:10.996Z,6.91
2019-01-10T10:29:43.052Z,6.92
2019-01-10T10:32:14.659Z,6.97
2019-01-10T10:34:46.731Z,7.03
2019-01-10T10:37:18.387Z,7.08
2019-01-10T10:39:51.869Z,7.11
2019-01-10T10:42:23.597Z,7.14
2019-01-10T10:44:55.406Z,7.16
2019-01-10T10:47:27.037Z,7.20
2019-01-10T10:49:58.709Z,7.22
2019-01-10T10:52:30.398Z,7.23
2019-01-10T10:55:02.192Z,7.24
2019-01-10T10:57:33.928Z,7.25
2019-01-10T11:00:09.991Z,7.26
2019-01-10T11:02:41.698Z,7.27
2019-01-10T11:05:13.570Z,7.29
2019-01-10T11:07:45.229Z,7.35
2019-01-10T11:10:19.186Z,7.37
2019-01-10T11:12:50.930Z,7.38
2019-01-10T11:15:23.906Z,7.38
2019-01-10T11:17:55.813Z,7.38
2019-01-10T11:20:27.931Z,7.39
2019-01-10T11:22:59.575Z,7.39
2019-01-10T11:25:33.470Z,7.41
2019-01-10T11:28:05.603Z,7.44
2019-01-10T11:30:37.576Z,7.47
2019-01-10T11:33:11.454Z,7.48
2019-01-10T11:35:43.127Z,7.47
2019-01-10T11:38:14.731Z,7.44
2019-01-10T11:40:46.415Z,7.42
2019-01-10T11:43:18.178Z,7.42
2019-01-10T11:45:50.088Z,7.43
2019-01-10T11:48:21.744Z,7.43
2019-01-10T11:50:53.408Z,7.44
2019-01-10T11:53:35.250Z,7.47
2019-01-10T11:56:00.473Z,7.46
2019-01-10T11:58:32.076Z,7.42
2019-01-10T12:01:03.982Z,7.38
2019-01-10T12:03:35.610Z,7.35
2019-01-10T12:06:07.363Z,7.34
2019-01-10T12:08:38.982Z,7.34
2019-01-10T12:11:10.843Z,7.34
2019-01-10T12:13:42.664Z,7.35
2019-01-10T12:16:15.637Z,7.36
2019-01-10T12:18:47.435Z,7.41
2019-01-10T12:21:19.307Z,7.42
2019-01-10T12:23:50.905Z,7.42
2019-01-10T12:26:22.576Z,7.45
2019-01-10T12:28:54.208Z,7.46
2019-01-10T12:31:27.705Z,7.45
2019-01-10T12:33:59.493Z,7.43
2019-01-10T12:36:31.754Z,7.45
2019-01-10T12:39:03.668Z,7.46
2019-01-10T12:41:35.847Z,7.48
2019-01-10T12:44:08.391Z,7.47
2019-01-10T12:46:40.243Z,7.46
2019-01-10T12:49:12.127Z,7.48
2019-01-10T12:51:44.024Z,7.46
2019-01-10T12:54:15.749Z,7.44
2019-01-10T12:56:47.586Z,7.41
2019-01-10T12:59:19.366Z,7.40
2019-01-10T13:01:51.239Z,7.39
2019-01-10T13:04:23.348Z,7.39
2019-01-10T13:06:55.380Z,7.39
2019-01-10T13:09:29.627Z,7.38
2019-01-10T13:12:01.746Z,7.40
2019-01-10T13:14:34.116Z,7.40
2019-01-10T13:17:06.790Z,7.40
2019-01-10T13:19:39.334Z,7.38
2019-01-10T13:22:11.169Z,7.38
2019-01-10T13:24:44.296Z,7.36
2019-01-10T13:27:16.119Z,7.35
2019-01-10T13:29:47.778Z,7.30
2019-01-10T13:32:19.523Z,7.27
2019-01-10T13:34:51.580Z,7.24
2019-01-10T13:37:24.458Z,7.21
2019-01-10T13:39:56.306Z,7.21
2019-01-10T13:42:28.834Z,7.22
2019-01-10T13:45:05.046Z,7.24
2019-01-10T13:47:36.926Z,7.27
2019-01-10T13:50:12.925Z,7.29
2019-01-10T13:52:44.850Z,7.31
2019-01-10T13:55:17.645Z,7.33
2019-01-10T13:57:49.520Z,7.32
2019-01-10T14:00:35.416Z,7.32
2019-01-10T14:03:03.906Z,7.33
2019-01-10T14:05:35.566Z,7.34
2019-01-10T14:08:07.267Z,7.35
2019-01-10T14:10:39.330Z,7.36
2019-01-10T14:13:11.027Z,7.33
2019-01-10T14:15:42.685Z,7.32
2019-01-10T14:18:14.751Z,7.29
2019-01-10T14:20:46.492Z,7.27
2019-01-10T14:23:18.213Z,7.26
2019-01-10T14:25:49.949Z,7.28
2019-01-10T14:28:21.781Z,7.26
2019-01-10T14:30:53.490Z,7.22
2019-01-10T14:33:25.884Z,7.19
2019-01-10T14:35:57.609Z,7.20
2019-01-10T14:38:29.355Z,7.23
2019-01-10T14:41:00.978Z,7.26
2019-01-10T14:43:32.866Z,7.27
2019-01-10T14:46:04.515Z,7.28
2019-01-10T14:48:36.646Z,7.29
2019-01-10T14:51:08.345Z,7.32
2019-01-10T14:53:40.033Z,7.35
2019-01-10T14:56:11.661Z,7.37
2019-01-10T14:58:43.481Z,7.35
2019-01-10T15:01:15.523Z,7.37
2019-01-10T15:04:06.414Z,7.39
2019-01-10T15:06:38.054Z,7.39
2019-01-10T15:09:10.336Z,7.38
2019-01-10T15:11:42.128Z,7.38
2019-01-10T15:14:16.243Z,7.40
2019-01-10T15:16:47.703Z,7.40
2019-01-10T15:19:19.459Z,7.41
2019-01-10T15:21:51.320Z,7.41
2019-01-10T15:24:22.988Z,7.42
2019-01-10T15:26:54.806Z,7.44
2019-01-10T15:29:26.754Z,7.45
2019-01-10T15:31:58.597Z,7.46
2019-01-10T15:34:30.645Z,7.47
2019-01-10T15:37:02.418Z,7.47
2019-01-10T15:39:34.149Z,7.50
2019-01-10T15:42:05.973Z,7.50
2019-01-10T15:44:37.925Z,7.50
2019-01-10T15:47:09.614Z,7.51
2019-01-10T15:49:41.322Z,7.51
2019-01-10T15:52:13.319Z,7.52
2019-01-10T15:54:46.252Z,7.51
2019-01-10T15:57:19.208Z,7.52
2019-01-10T15:59:50.981Z,7.50
2019-01-10T16:02:22.725Z,7.50
2019-01-10T16:04:54.397Z,7.51
2019-01-10T16:07:27.055Z,7.49
2019-01-10T16:10:00.234Z,7.46
2019-01-10T16:12:32.040Z,7.46
2019-01-10T16:15:03.857Z,7.44
2019-01-10T16:17:35.711Z,7.44
2019-01-10T16:20:08.764Z,7.41
2019-01-10T16:22:40.463Z,7.42
2019-01-10T16:25:12.763Z,7.41
2019-01-10T16:27:44.518Z,7.41
2019-01-10T16:30:22.740Z,7.40
2019-01-10T16:32:54.997Z,7.40
2019-01-10T16:35:26.685Z,7.42
2019-01-10T16:37:58.410Z,7.44
2019-01-10T16:40:31.861Z,7.43
2019-01-10T16:43:11.769Z,7.41
2019-01-10T16:45:41.776Z,7.40
2019-01-10T16:48:13.800Z,7.38
2019-01-10T16:50:45.505Z,7.38
2019-01-10T16:53:17.265Z,7.38
2019-01-10T16:55:49.017Z,7.37
2019-01-10T16:58:20.731Z,7.35
2019-01-10T17:00:52.562Z,7.34
2019-01-10T17:03:24.672Z,7.33
2019-01-10T17:05:56.388Z,7.32
2019-01-10T17:08:28.161Z,7.33
2019-01-10T17:11:04.826Z,7.33
2019-01-10T17:13:37.321Z,7.33
2019-01-10T17:16:09.342Z,7.34
2019-01-10T17:18:41.693Z,7.30
2019-01-10T17:21:13.484Z,7.24
2019-01-10T17:23:45.550Z,7.18
2019-01-10T17:26:17.398Z,7.17
2019-01-10T17:28:49.121Z,7.18
2019-01-10T17:31:20.801Z,7.18
2019-01-10T17:33:57.174Z,7.18
2019-01-10T17:36:29.006Z,7.14
2019-01-10T17:39:00.712Z,7.07
2019-01-10T17:41:32.565Z,6.99
2019-01-10T17:44:04.599Z,6.94
2019-01-10T17:46:36.611Z,6.89
2019-01-10T17:49:08.987Z,6.86
2019-01-10T17:51:40.767Z,6.81
2019-01-10T17:54:12.638Z,6.79
2019-01-10T17:56:44.386Z,6.75
2019-01-10T17:59:16.276Z,6.73
2019-01-10T18:01:48.032Z,6.71
2019-01-10T18:04:21.193Z,6.72
2019-01-10T18:06:57.133Z,6.73
2019-01-10T18:09:29.081Z,6.73
2019-01-10T18:12:00.997Z,6.76
2019-01-10T18:14:34.529Z,6.79
2019-01-10T18:17:06.290Z,6.81
2019-01-10T18:19:39.117Z,6.83
2019-01-10T18:22:12.808Z,6.84
2019-01-10T18:24:45.248Z,6.84
2019-01-10T18:27:17.448Z,6.79
2019-01-10T18:29:49.384Z,6.77
2019-01-10T18:32:21.235Z,6.71
2019-01-10T18:34:53.471Z,6.68
2019-01-10T18:37:25.202Z,6.67
2019-01-10T18:39:57.245Z,6.64
2019-01-10T18:42:28.973Z,6.63
2019-01-10T18:45:01.560Z,6.62
2019-01-10T18:47:33.429Z,6.63
2019-01-10T18:50:06.946Z,6.63
2019-01-10T18:52:40.286Z,6.63
2019-01-10T18:55:12.185Z,6.65
2019-01-10T18:57:45.041Z,6.66
2019-01-10T19:00:27.644Z,6.66
2019-01-10T19:03:01.167Z,6.68
2019-01-10T19:05:33.577Z,6.67
2019-01-10T19:08:05.858Z,6.68
2019-01-10T19:10:37.699Z,6.70
2019-01-10T19:13:10.596Z,6.70
2019-01-10T19:15:42.532Z,6.71
2019-01-10T19:18:14.234Z,6.72
2019-01-10T19:20:46.151Z,6.73
2019-01-10T19:23:18.007Z,6.73
2019-01-10T19:25:50.017Z,6.74
2019-01-10T19:28:21.864Z,6.71
2019-01-10T19:30:53.815Z,6.68
2019-01-10T19:33:26.021Z,6.65
2019-01-10T19:35:58.246Z,6.62
2019-01-10T19:38:29.997Z,6.61
2019-01-10T19:41:01.894Z,6.60
2019-01-10T19:43:33.801Z,6.60
2019-01-10T19:46:06.389Z,6.58
2019-01-10T19:48:38.128Z,6.57
2019-01-10T19:51:10.053Z,6.55
2019-01-10T19:53:42.820Z,6.58
2019-01-10T19:56:14.601Z,6.57
2019-01-10T19:58:46.482Z,6.54
2019-01-10T20:01:18.777Z,6.53
2019-01-10T20:03:50.703Z,6.53
2019-01-10T20:06:22.563Z,6.55
2019-01-10T20:08:54.319Z,6.56
2019-01-10T20:11:26.056Z,6.57
2019-01-10T20:13:58.043Z,6.56
2019-01-10T20:16:29.757Z,6.56
2019-01-10T20:19:05.318Z,6.52
2019-01-10T20:21:37.359Z,6.48
2019-01-10T20:24:09.500Z,6.44
2019-01-10T20:26:41.452Z,6.41
2019-01-10T20:29:13.389Z,6.38
2019-01-10T20:31:45.363Z,6.36
2019-01-10T20:34:17.724Z,6.31
2019-01-10T20:36:49.554Z,6.27
2019-01-10T20:39:21.509Z,6.24
2019-01-10T20:41:54.965Z,6.22
2019-01-10T20:44:26.867Z,6.17
2019-01-10T20:49:20.078Z,6.16
2019-01-10T20:51:51.843Z,6.06
2019-01-10T20:54:24.768Z,6.06
2019-01-10T20:56:56.649Z,6.00
2019-01-10T20:59:28.545Z,5.93
2019-01-10T21:02:00.398Z,5.87
2019-01-10T21:04:32.249Z,5.82
2019-01-10T21:07:04.488Z,5.79
2019-01-10T21:09:36.458Z,5.75
2019-01-10T21:12:08.794Z,5.73
2019-01-10T21:14:41.895Z,5.69
2019-01-10T21:17:16.153Z,5.68
2019-01-10T21:19:48.049Z,5.65
2019-01-10T21:22:20.188Z,5.63
2019-01-10T21:24:52.020Z,5.59
2019-01-10T21:27:23.930Z,5.52
2019-01-10T21:29:56.118Z,5.43
2019-01-10T21:32:31.149Z,5.38
2019-01-10T21:35:03.522Z,5.32
2019-01-10T21:37:35.439Z,5.29
2019-01-10T21:40:10.971Z,5.25
2019-01-10T21:42:44.208Z,5.24
2019-01-10T21:45:18.941Z,5.22
2019-01-10T21:47:51.028Z,5.17
2019-01-10T21:50:25.828Z,5.08
2019-01-10T21:52:57.849Z,5.03
2019-01-10T21:55:30.000Z,4.97
2019-01-10T21:58:01.445Z,4.91
2019-01-10T22:00:33.936Z,4.86
2019-01-10T22:03:05.861Z,4.83
2019-01-10T22:05:37.555Z,4.84
2019-01-10T22:08:09.873Z,4.87
2019-01-10T22:10:41.611Z,4.91
2019-01-10T22:13:13.301Z,4.90
2019-01-10T22:15:44.954Z,4.86
2019-01-10T22:18:16.702Z,4.81
2019-01-10T22:20:48.419Z,4.80
2019-01-10T22:23:20.108Z,4.77
2019-01-10T22:25:51.897Z,4.75
2019-01-10T22:28:23.595Z,4.73
2019-01-10T22:30:55.752Z,4.68
2019-01-10T22:33:27.922Z,4.66
2019-01-10T22:35:59.622Z,4.66
2019-01-10T22:38:31.399Z,4.66
2019-01-10T22:41:03.107Z,4.67
2019-01-10T22:43:34.899Z,4.65
2019-01-10T22:46:06.870Z,4.60
2019-01-10T22:48:38.609Z,4.52
2019-01-10T22:51:10.415Z,4.43
2019-01-10T22:53:43.906Z,4.41
2019-01-10T22:56:15.756Z,4.47
2019-01-10T22:58:47.565Z,4.47
2019-01-10T23:01:45.946Z,4.47
2019-01-10T23:04:32.562Z,4.45
2019-01-10T23:07:04.242Z,4.43
2019-01-10T23:09:35.880Z,4.47
2019-01-10T23:12:14.320Z,4.52
2019-01-10T23:14:45.973Z,4.56
2019-01-10T23:17:17.602Z,4.59
2019-01-10T23:19:51.926Z,4.60
2019-01-10T23:22:23.556Z,4.62
2019-01-10T23:24:59.141Z,4.63
2019-01-10T23:27:30.958Z,4.63
2019-01-10T23:30:02.622Z,4.61
2019-01-10T23:32:34.283Z,4.64
2019-01-10T23:35:06.817Z,4.67
2019-01-10T23:37:38.615Z,4.74
2019-01-10T23:40:12.383Z,4.78
2019-01-10T23:42:44.160Z,4.81
2019-01-10T23:45:19.590Z,4.81
2019-01-10T23:47:51.251Z,4.78
2019-01-10T23:50:23.349Z,4.75
2019-01-10T23:52:55.029Z,4.77
2019-01-10T23:55:26.706Z,4.78
2019-01-10T23:57:58.395Z,4.75
